createdAt,value
2024-05-09T00:00:30.760Z,7.33
2024-05-09T00:03:52.512Z,7.23
2024-05-09T00:07:04.491Z,7.14
2024-05-09T00:09:38.424Z,7.04
2024-05-09T00:12:51.448Z,6.94
2024-05-09T00:16:03.906Z,6.86
2024-05-09T00:18:52.877Z,6.75
2024-05-09T00:21:21.093Z,6.67
2024-05-09T00:24:28.851Z,6.60
2024-05-09T00:27:20.480Z,6.52
2024-05-09T00:30:36.738Z,6.43
2024-05-09T00:33:48.600Z,6.31
2024-05-09T00:36:44.625Z,6.21
2024-05-09T00:39:44.124Z,6.12
2024-05-09T00:43:14.187Z,6.03
2024-05-09T00:46:19.880Z,5.90
2024-05-09T00:49:21.068Z,5.80
2024-05-09T00:52:10.377Z,5.71
2024-05-09T00:55:10.404Z,5.62
2024-05-09T00:58:17.385Z,5.53
2024-05-09T01:01:23.773Z,5.41
2024-05-09T01:04:17.768Z,5.31
2024-05-09T01:06:57.832Z,5.22
2024-05-09T01:09:36.342Z,5.15
2024-05-09T01:12:52.418Z,5.07
2024-05-09T01:15:48.336Z,4.99
2024-05-09T01:18:47.159Z,4.92
2024-05-09T01:21:59.222Z,4.84
2024-05-09T01:25:17.790Z,4.74
2024-05-09T01:29:05.532Z,4.64
2024-05-09T01:31:51.535Z,4.53
2024-05-09T01:35:43.476Z,4.45
2024-05-09T01:39:43.529Z,4.33
2024-05-09T01:43:01.470Z,4.21
2024-05-09T01:46:06.583Z,4.10
2024-05-09T01:49:04.058Z,4.03
2024-05-09T01:52:17.672Z,3.96
2024-05-09T01:55:29.353Z,3.89
2024-05-09T01:58:55.008Z,3.80
2024-05-09T02:02:33.888Z,3.70
2024-05-09T02:05:50.429Z,3.60
2024-05-09T02:09:22.047Z,3.51
2024-05-09T02:12:33.739Z,3.43
2024-05-09T02:16:05.620Z,3.36
2024-05-09T02:19:38.187Z,3.27
2024-05-09T02:23:28.727Z,3.17
2024-05-09T02:26:57.171Z,3.08
2024-05-09T02:29:57.908Z,3.01
2024-05-09T02:33:22.826Z,2.94
2024-05-09T02:37:01.606Z,2.88
2024-05-09T02:40:55.908Z,2.80
2024-05-09T02:44:16.718Z,2.76
2024-05-09T02:47:45.869Z,2.71
2024-05-09T02:51:17.500Z,2.65
2024-05-09T02:54:14.360Z,2.59
2024-05-09T02:57:41.808Z,2.56
2024-05-09T03:01:23.436Z,2.51
2024-05-09T03:04:55.330Z,2.46
2024-05-09T03:08:44.007Z,2.49
2024-05-09T03:12:07.165Z,2.60
2024-05-09T03:15:28.233Z,2.72
2024-05-09T03:18:56.561Z,2.81
2024-05-09T03:22:12.457Z,2.90
2024-05-09T03:25:46.730Z,3.14
2024-05-09T03:29:06.946Z,3.59
2024-05-09T03:32:39.095Z,3.92
2024-05-09T03:36:14.158Z,4.22
2024-05-09T03:39:38.248Z,4.42
2024-05-09T03:43:04.183Z,4.53
2024-05-09T03:46:04.909Z,4.62
2024-05-09T03:49:22.466Z,4.76
2024-05-09T03:52:16.626Z,4.89
2024-05-09T03:55:55.766Z,5.03
2024-05-09T03:59:00.375Z,5.12
2024-05-09T04:06:05.012Z,5.31
2024-05-09T04:09:16.282Z,5.43
2024-05-09T04:11:58.157Z,5.58
2024-05-09T04:15:32.491Z,5.75
2024-05-09T04:18:45.529Z,6.01
2024-05-09T04:22:02.460Z,6.38
2024-05-09T04:25:33.246Z,6.81
2024-05-09T04:29:15.840Z,7.14
2024-05-09T04:35:30.150Z,8.02
2024-05-09T04:39:45.802Z,8.83
2024-05-09T04:43:34.623Z,10.69
2024-05-09T04:47:09.246Z,12.56
2024-05-09T04:50:29.050Z,14.76
2024-05-09T04:53:27.200Z,16.90
2024-05-09T04:56:37.522Z,18.75
2024-05-09T04:59:38.319Z,20.38
2024-05-09T05:02:18.808Z,22.05
2024-05-09T05:05:18.404Z,22.97
2024-05-09T05:08:24.802Z,23.47
2024-05-09T05:11:13.876Z,23.56
2024-05-09T05:14:22.543Z,22.90
2024-05-09T05:17:18.105Z,21.34
2024-05-09T05:20:15.237Z,20.51
2024-05-09T05:23:21.370Z,19.79
2024-05-09T05:26:05.533Z,19.17
2024-05-09T05:29:02.269Z,18.77
2024-05-09T05:32:00.562Z,18.63
2024-05-09T05:35:19.018Z,18.65
2024-05-09T05:42:39.510Z,19.23
2024-05-09T05:45:52.602Z,19.25
2024-05-09T05:48:56.538Z,19.00
2024-05-09T05:52:14.124Z,18.75
2024-05-09T05:55:25.579Z,18.28
2024-05-09T05:58:13.039Z,18.13
2024-05-09T06:01:04.071Z,18.45
2024-05-09T06:03:55.809Z,18.98
2024-05-09T06:06:50.376Z,19.42
2024-05-09T06:10:17.391Z,19.75
2024-05-09T06:13:50.227Z,20.10
2024-05-09T06:17:18.713Z,20.39
2024-05-09T06:20:46.256Z,20.77
2024-05-09T06:23:44.354Z,21.05
2024-05-09T06:27:03.762Z,21.02
2024-05-09T06:30:25.310Z,21.16
2024-05-09T06:33:54.418Z,21.31
2024-05-09T06:37:02.607Z,22.03
2024-05-09T06:40:29.435Z,22.46
2024-05-09T06:43:56.397Z,22.59
2024-05-09T06:47:16.273Z,22.74
2024-05-09T06:50:28.604Z,22.93
2024-05-09T06:53:46.502Z,23.20
2024-05-09T06:56:40.034Z,23.66
2024-05-09T06:59:48.364Z,24.00
2024-05-09T07:03:07.563Z,23.89
2024-05-09T07:06:26.147Z,23.46
2024-05-09T07:09:24.189Z,23.19
2024-05-09T07:12:15.247Z,23.34
2024-05-09T07:15:23.590Z,23.55
2024-05-09T07:18:43.293Z,23.57
2024-05-09T07:21:43.753Z,23.57
2024-05-09T07:25:01.979Z,23.60
2024-05-09T07:28:15.267Z,23.62
2024-05-09T07:31:27.814Z,23.76
2024-05-09T07:34:39.464Z,23.86
2024-05-09T07:41:50.409Z,23.72
2024-05-09T07:55:23.163Z,22.71
2024-05-09T07:58:26.793Z,22.46
2024-05-09T08:01:55.463Z,22.24
2024-05-09T08:05:16.754Z,22.29
2024-05-09T08:08:16.749Z,22.52
2024-05-09T08:11:35.473Z,22.35
2024-05-09T08:14:57.321Z,21.60
2024-05-09T08:18:06.122Z,21.25
2024-05-09T08:21:18.245Z,21.04
2024-05-09T08:24:47.060Z,20.61
2024-05-09T08:27:46.996Z,20.52
2024-05-09T08:31:06.874Z,20.56
2024-05-09T08:34:26.161Z,20.64
2024-05-09T08:42:02.636Z,20.48
2024-05-09T08:45:31.461Z,20.42
2024-05-09T08:48:52.888Z,20.55
2024-05-09T08:52:14.223Z,20.70
2024-05-09T08:55:33.759Z,20.98
2024-05-09T08:58:56.922Z,21.06
2024-05-09T09:01:44.947Z,20.54
2024-05-09T09:04:20.114Z,20.22
2024-05-09T09:07:28.682Z,20.13
2024-05-09T09:10:17.850Z,19.69
2024-05-09T09:13:16.279Z,19.37
2024-05-09T09:16:34.806Z,19.36
2024-05-09T09:19:45.759Z,19.56
2024-05-09T09:22:59.755Z,19.74
2024-05-09T09:26:01.858Z,19.89
2024-05-09T09:28:58.731Z,19.75
2024-05-09T09:32:27.871Z,19.61
2024-05-09T09:35:29.363Z,19.53
2024-05-09T09:43:01.356Z,19.60
2024-05-09T09:46:22.853Z,19.67
2024-05-09T09:49:52.542Z,19.54
2024-05-09T09:53:04.137Z,19.56
2024-05-09T09:56:23.864Z,19.63
2024-05-09T09:59:37.223Z,19.50
2024-05-09T10:02:58.496Z,19.54
2024-05-09T10:06:02.027Z,19.81
2024-05-09T10:09:30.669Z,19.79
2024-05-09T10:12:43.806Z,19.62
2024-05-09T10:15:48.545Z,19.57
2024-05-09T10:19:17.379Z,19.41
2024-05-09T10:22:38.539Z,19.47
2024-05-09T10:25:49.528Z,19.56
2024-05-09T10:29:05.705Z,19.86
2024-05-09T10:32:33.040Z,20.13
2024-05-09T10:35:34.886Z,20.38
2024-05-09T10:42:33.690Z,20.90
2024-05-09T10:45:34.576Z,20.84
2024-05-09T10:48:15.683Z,20.85
2024-05-09T10:50:56.536Z,20.84
2024-05-09T10:53:52.636Z,20.66
2024-05-09T10:56:33.670Z,20.76
2024-05-09T10:59:46.821Z,20.94
2024-05-09T11:04:58.202Z,20.91
2024-05-09T11:08:00.869Z,20.63
2024-05-09T11:11:12.745Z,20.39
2024-05-09T11:14:13.894Z,20.26
2024-05-09T11:17:05.939Z,20.30
2024-05-09T11:19:52.268Z,20.35
2024-05-09T11:22:47.090Z,20.46
2024-05-09T11:26:05.451Z,20.45
2024-05-09T11:29:18.673Z,20.41
2024-05-09T11:32:08.825Z,20.18
2024-05-09T11:35:16.007Z,20.04
2024-05-09T11:42:32.306Z,20.10
2024-05-09T11:45:43.330Z,20.21
2024-05-09T11:48:42.732Z,20.25
2024-05-09T11:51:27.372Z,20.30
2024-05-09T11:54:28.805Z,20.31
2024-05-09T11:57:32.356Z,20.30
2024-05-09T12:00:54.754Z,20.28
2024-05-09T12:03:37.738Z,20.31
2024-05-09T12:06:15.662Z,20.33
2024-05-09T12:09:13.787Z,20.32
2024-05-09T12:12:07.628Z,20.34
2024-05-09T12:15:38.195Z,20.35
2024-05-09T12:18:38.250Z,20.27
2024-05-09T12:21:20.376Z,20.21
2024-05-09T12:24:21.957Z,20.22
2024-05-09T12:27:12.944Z,20.18
2024-05-09T12:30:32.275Z,20.05
2024-05-09T12:33:34.408Z,20.06
2024-05-09T12:36:18.184Z,20.01
2024-05-09T12:39:39.026Z,19.85
2024-05-09T12:42:50.689Z,19.77
2024-05-09T12:45:40.891Z,19.85
2024-05-09T12:48:39.632Z,19.99
2024-05-09T12:51:19.997Z,20.14
2024-05-09T12:53:48.243Z,20.30
2024-05-09T12:56:30.246Z,20.47
2024-05-09T12:59:08.734Z,20.59
2024-05-09T13:02:20.593Z,20.64
2024-05-09T13:05:04.382Z,20.61
2024-05-09T13:08:17.731Z,20.48
2024-05-09T13:11:26.727Z,20.34
2024-05-09T13:14:12.278Z,20.33
2024-05-09T13:17:06.594Z,20.27
2024-05-09T13:19:55.484Z,20.26
2024-05-09T13:22:38.916Z,20.35
2024-05-09T13:25:26.779Z,20.33
2024-05-09T13:27:59.019Z,20.20
2024-05-09T13:30:47.793Z,20.16
2024-05-09T13:33:36.377Z,20.20
2024-05-09T13:36:55.137Z,20.26
2024-05-09T13:39:52.556Z,20.27
2024-05-09T13:42:41.015Z,20.16
2024-05-09T13:45:32.146Z,20.13
2024-05-09T13:48:50.909Z,20.07
2024-05-09T13:52:01.637Z,20.08
2024-05-09T13:54:59.188Z,20.11
2024-05-09T13:58:00.870Z,20.19
2024-05-09T14:00:54.360Z,20.09
2024-05-09T14:03:36.903Z,20.05
2024-05-09T14:06:30.213Z,20.01
2024-05-09T14:09:24.474Z,19.99
2024-05-09T14:12:12.798Z,20.02
2024-05-09T14:15:03.527Z,20.05
2024-05-09T14:17:53.589Z,20.10
2024-05-09T14:20:49.384Z,20.16
2024-05-09T14:23:35.510Z,20.15
2024-05-09T14:26:09.059Z,20.12
2024-05-09T14:28:56.418Z,20.13
2024-05-09T14:32:16.021Z,20.13
2024-05-09T14:34:55.342Z,20.13
2024-05-09T14:42:10.996Z,20.21
2024-05-09T14:45:02.080Z,20.20
2024-05-09T14:47:50.627Z,20.16
2024-05-09T14:50:36.311Z,20.07
2024-05-09T14:53:58.291Z,20.00
2024-05-09T14:56:45.295Z,20.03
2024-05-09T14:59:35.958Z,20.03
2024-05-09T15:02:36.166Z,20.04
2024-05-09T15:05:30.179Z,20.05
2024-05-09T15:08:24.206Z,20.02
2024-05-09T15:10:59.914Z,20.03
2024-05-09T15:13:31.453Z,19.99
2024-05-09T15:16:30.102Z,19.95
2024-05-09T15:18:58.561Z,19.91
2024-05-09T15:21:50.135Z,19.82
2024-05-09T15:25:01.993Z,19.76
2024-05-09T15:27:56.324Z,19.74
2024-05-09T15:30:53.893Z,19.71
2024-05-09T15:34:04.483Z,19.65
2024-05-09T15:36:43.434Z,19.61
2024-05-09T15:40:12.107Z,19.54
2024-05-09T15:43:43.621Z,19.45
2024-05-09T15:46:54.449Z,19.43
2024-05-09T15:49:56.636Z,19.41
2024-05-09T15:53:04.948Z,19.35
2024-05-09T15:56:13.213Z,19.31
2024-05-09T15:58:53.854Z,19.25
2024-05-09T16:01:38.093Z,19.18
2024-05-09T16:04:25.653Z,19.11
2024-05-09T16:07:53.905Z,19.08
2024-05-09T16:10:41.560Z,19.08
2024-05-09T16:13:27.948Z,19.06
2024-05-09T16:16:39.416Z,19.06
2024-05-09T16:19:50.846Z,19.05
2024-05-09T16:22:36.694Z,19.00
2024-05-09T16:25:27.541Z,18.97
2024-05-09T16:28:12.263Z,18.92
2024-05-09T16:30:55.751Z,18.87
2024-05-09T16:33:41.241Z,18.83
2024-05-09T16:36:38.121Z,18.75
2024-05-09T16:39:51.963Z,18.69
2024-05-09T16:42:53.742Z,18.62
2024-05-09T16:45:36.723Z,18.58
2024-05-09T16:48:40.214Z,18.55
2024-05-09T16:51:40.551Z,18.52
2024-05-09T16:54:33.466Z,18.45
2024-05-09T16:57:13.210Z,18.36
2024-05-09T17:00:00.262Z,18.31
2024-05-09T17:02:31.005Z,18.26
2024-05-09T17:05:36.901Z,18.23
2024-05-09T17:08:11.322Z,18.17
2024-05-09T17:10:50.041Z,18.12
2024-05-09T17:13:23.738Z,18.08
2024-05-09T17:16:13.283Z,18.03
2024-05-09T17:19:32.752Z,17.97
2024-05-09T17:22:22.630Z,17.88
2024-05-09T17:25:04.040Z,17.80
2024-05-09T17:27:52.389Z,17.71
2024-05-09T17:30:46.481Z,17.59
2024-05-09T17:33:57.687Z,17.47
2024-05-09T17:37:15.578Z,17.30
2024-05-09T17:40:56.115Z,17.09
2024-05-09T17:43:42.009Z,16.91
2024-05-09T17:46:30.991Z,16.74
2024-05-09T17:49:15.593Z,16.59
2024-05-09T17:52:05.270Z,16.45
2024-05-09T17:54:33.828Z,16.29
2024-05-09T17:57:05.036Z,16.11
2024-05-09T17:59:56.271Z,15.95
2024-05-09T18:02:47.879Z,15.73
2024-05-09T18:05:19.047Z,15.52
2024-05-09T18:07:52.714Z,15.31
2024-05-09T18:11:11.189Z,15.09
2024-05-09T18:14:14.906Z,14.83
2024-05-09T18:17:55.257Z,14.54
2024-05-09T18:20:43.946Z,14.28
2024-05-09T18:23:57.385Z,14.03
2024-05-09T18:26:50.055Z,13.79
2024-05-09T18:30:17.359Z,13.52
2024-05-09T18:33:45.708Z,13.26
2024-05-09T18:36:46.399Z,13.02
2024-05-09T18:39:50.592Z,12.82
2024-05-09T18:43:25.948Z,12.60
2024-05-09T18:46:56.325Z,12.35
2024-05-09T18:50:28.607Z,12.14
2024-05-09T18:54:05.650Z,11.95
2024-05-09T18:57:26.471Z,11.75
2024-05-09T19:05:12.487Z,11.30
2024-05-09T19:08:07.599Z,11.13
2024-05-09T19:11:26.233Z,10.99
2024-05-09T19:14:26.190Z,10.82
2024-05-09T19:17:16.329Z,10.71
2024-05-09T19:20:48.524Z,10.60
2024-05-09T19:24:00.315Z,10.49
2024-05-09T19:27:49.331Z,10.40
2024-05-09T19:31:04.112Z,10.29
2024-05-09T19:34:22.201Z,10.15
2024-05-09T19:42:20.719Z,9.84
2024-05-09T19:45:36.217Z,9.74
2024-05-09T19:48:31.470Z,9.61
2024-05-09T19:51:43.003Z,9.53
2024-05-09T19:54:27.085Z,9.46
2024-05-09T19:57:37.688Z,9.37
2024-05-09T20:00:29.411Z,9.27
2024-05-09T20:03:44.090Z,9.14
2024-05-09T20:06:26.298Z,9.05
2024-05-09T20:09:36.364Z,8.95
2024-05-09T20:12:37.811Z,8.87
2024-05-09T20:15:39.548Z,8.78
2024-05-09T20:18:45.279Z,8.67
2024-05-09T20:21:50.552Z,8.55
2024-05-09T20:24:28.397Z,8.46
2024-05-09T20:27:06.343Z,8.39
2024-05-09T20:29:55.726Z,8.33
2024-05-09T20:33:14.506Z,8.28
2024-05-09T20:36:21.967Z,8.19
2024-05-09T20:39:29.849Z,8.10
2024-05-09T20:42:46.739Z,8.02
2024-05-09T20:46:08.346Z,7.94
2024-05-09T20:49:42.830Z,7.86
2024-05-09T20:52:25.240Z,7.77
2024-05-09T20:55:36.506Z,7.71
2024-05-09T20:58:38.871Z,7.65
2024-05-09T21:01:40.451Z,7.58
2024-05-09T21:05:00.984Z,7.52
2024-05-09T21:08:28.255Z,7.46
2024-05-09T21:11:27.908Z,7.43
2024-05-09T21:14:40.195Z,7.39
2024-05-09T21:18:04.961Z,7.35
2024-05-09T21:21:11.426Z,7.31
2024-05-09T21:24:35.374Z,7.27
2024-05-09T21:27:45.016Z,7.22
2024-05-09T21:30:52.225Z,7.15
2024-05-09T21:34:15.078Z,7.09
2024-05-09T21:41:49.062Z,6.96
2024-05-09T21:45:20.344Z,6.91
2024-05-09T21:48:59.552Z,6.82
2024-05-09T21:52:30.044Z,6.74
2024-05-09T21:55:17.903Z,6.66
2024-05-09T21:58:52.435Z,6.60
2024-05-09T22:02:12.443Z,6.52
2024-05-09T22:04:55.678Z,6.41
2024-05-09T22:07:47.350Z,6.35
2024-05-09T22:10:36.543Z,6.31
2024-05-09T22:13:25.899Z,6.28
2024-05-09T22:16:28.140Z,6.24
2024-05-09T22:19:29.445Z,6.18
2024-05-09T22:22:11.426Z,6.12
2024-05-09T22:24:46.453Z,6.06
2024-05-09T22:27:47.187Z,6.03
2024-05-09T22:31:10.334Z,5.98
2024-05-09T22:34:00.737Z,5.94
2024-05-09T22:36:51.680Z,5.91
2024-05-09T22:39:32.128Z,5.90
2024-05-09T22:42:33.235Z,5.86
2024-05-09T22:45:24.707Z,5.82
2024-05-09T22:47:56.726Z,5.80
2024-05-09T22:51:05.552Z,5.76
2024-05-09T22:54:08.767Z,5.73
2024-05-09T22:57:20.490Z,5.70
2024-05-09T23:00:01.021Z,5.63
2024-05-09T23:02:29.753Z,5.59
2024-05-09T23:05:44.300Z,5.54
2024-05-09T23:08:18.689Z,5.49
2024-05-09T23:10:57.051Z,5.46
2024-05-09T23:13:39.326Z,5.44
2024-05-09T23:17:02.957Z,5.40
2024-05-09T23:20:15.071Z,5.35
2024-05-09T23:24:06.751Z,5.30
2024-05-09T23:26:56.213Z,5.26
2024-05-09T23:30:43.883Z,5.23
2024-05-09T23:34:05.035Z,5.18
2024-05-09T23:41:45.791Z,5.07
2024-05-09T23:45:21.777Z,5.03
2024-05-09T23:48:24.963Z,5.00
2024-05-09T23:51:47.932Z,4.95
2024-05-09T23:55:07.541Z,4.90
2024-05-09T23:58:28.817Z,4.86
